Aktualne dane pomiarowe

Uwaga, wersja testowa! Automatyczne pobieranie danych za pomocą narzędzi lub skryptów to umożliwiających jest zabronione.

Dane meteo z obszaru Polski uzyskane na podstawie depesz SYNOP pobieranych co godzinę z NWS. Najedź myszką na symbol przedstawiony w tabeli, aby uzyskać informacje co do jego znaczenia. Prosimy pamiętać, że to testowa wersja strony, która jeszcze nie jest ukończona. Stworzono również jest krótki FAQ dotyczący korzystania z tej podstrony Anomalie temperatury w chwili obecnej odniesione są do okresu referencyjnego 1951-2016. Okres ten będzie później zmieniony na 1981-2010. Kliknij ikonę aby pobrać plik CSV. Kliknij ikonę aby wygenerować mapę synoptyczną dla danego terminu.

Wybierz Datę:    

        

Sandomierz (12585)

Dane terminowe dla wybranej stacji. Kliknij datę, aby otrzymać dane z tego terminu dla wszystkich stacji.

TemperaturaZachmurzenieWiatrCiśnienieOpadyPogoda
 Data t td wb tx tn tg rh  Nt Nl Cl Cm Ch ws wd g1 g2 wx mslp ppp ch 24h 12h t ww ww w1 w2  
2019-05-06 23:00:00 8.1 -0.9 3.7--- 5350.0--3wx--31012.4 985.9 0.1---------
2019-05-06 22:00:00 9.2 -1.3 4.2--- 4850.0--3wx-1031012.5 986.1 0.5---------
2019-05-06 21:00:00 9.4 -1.4 4.3--- 4750.0--6wx-1361012.0 985.6 -0.1---------
2019-05-06 20:00:00 8.8 -0.8 4.1--- 5150.0--3wx-1331012.3 985.8 0.8---wx-----
2019-05-06 19:00:00 9.8 -1.9 4.4--- 4450.0--6wx---1012.0 985.6 0.7---wx-----
2019-05-06 18:00:00 9.0 -0.9 4.2 10.0 5.7- 5030.0--6wx-1261012.1 985.7 0.9--12wx-----
2019-05-06 17:00:00 9.5 -2.5 4.0--- 4345.0--5wx-1151011.4 985.0 0.4---wx-----
2019-05-06 16:00:00 8.7 -0.9 4.1--- 5140.0--6wx111261011.3 984.9 0.1---wx-----
2019-05-06 15:00:00 9.4 -0.2 4.7--- 5135.0--3wx-1031011.2 984.8 0.0---wx-----
2019-05-06 14:00:00 9.9 -0.1 5.0--- 5045.0--3wx--31010.9 984.6 0.0---------
2019-05-06 13:00:00 9.9 -0.9 4.7--- 4745.0--4wx--41011.1 984.8 0.2---------
2019-05-06 12:00:00 9.1 -1.6 4.1--- 4740.0--5wx-1251011.2 984.8 0.0- 0.06------
2019-05-06 11:00:00 8.6 -1.3 3.9--- 5040.0--6wx-1161011.0 984.6 -0.1---------
2019-05-06 10:00:00 8.9 -0.7 4.2--- 5135.0--6wx-1261011.0 984.6 0.1---------
2019-05-06 09:00:00 7.9 -0.8 3.6--- 5440.0--7wx121271011.3 984.8 -0.1---------
2019-05-06 08:00:00 7.7 -0.8 3.5--- 5545.0--6wx111261011.2 984.7----------
2019-05-06 07:00:00 6.7 -0.5 3.1--- 6050.0--6wx-1261011.1 984.5----------
2019-05-06 06:00:00 5.7 -1.2 2.2 6.4 5.3 5 6145.0--6wx--61011.6 984.9-- 0.012------
2019-05-05 16:00:00 6.9 4.6 5.4--- 8515.0--5wx--51011.3 984.7 0.5---wx-----
2019-05-05 15:00:00 7.4 4.2 5.4--- 8018.0--5wx-1251011.0 984.4 0.5---wx-----
2019-05-05 14:00:00 7.7 4.6 5.8--- 8118.0--5wx--51010.8 984.3 0.5---wx-----
2019-05-05 13:00:00 8.7 4.3 6.1--- 7422.0--7wx-1271010.6 984.2 0.8---wx-----
2019-05-05 12:00:00 9.0 4.2 6.2--- 7240.0--7wx121271010.3 983.9 0.9- 0.06------
2019-05-05 11:00:00 9.2 4.6 6.5--- 7325.0--6wx---1010.2 983.8 1.1---------
2019-05-05 10:00:00 7.9 4.1 5.6--- 7727.0--6wx111261009.9 983.4 1.0---------
2019-05-05 09:00:00 6.7 3.5 4.8--- 8029.0--7wx-1271009.6 983.0 1.1---------
2019-05-05 08:00:00 6.7 4.0 5.0--- 8330.0--6wx111161009.3 982.7 1.6---------
2019-05-05 07:00:00 6.1 4.1 4.8--- 8725.0--6wx--61009.0 982.4 2.0---------
2019-05-05 06:00:00 5.9 4.2 4.8 10.2 5.4 4 8913.0--6wx-1161008.5 981.9 2.2- 0.012----- 10.5
2019-05-05 05:00:00 6.3 5.4 5.6--- 944.6--5wx101051007.7 981.1 1.7---wx-----
2019-05-05 04:00:00 7.4 7.4 7.3--- 1003.3--4wx--41006.8 980.4 1.3---wx-----
2019-05-05 03:00:00 7.1 7.1 7.0--- 1002.2--2wx--21006.2 979.7 1.0---wx-----
2019-05-05 02:00:00 6.7 6.7 6.6--- 1000.4--2wx---1005.9 979.4 0.3---wx-----
2019-05-05 01:00:00 5.6 5.5 5.4--- 990.1--2wx---1005.7 979.1 -0.1---wx-----
2019-05-05 00:00:00 6.0 5.7 5.7--- 980.2--1wx---1005.2 978.7 -0.6---wx-----
1.5 ms

 

Print Friendly, PDF & Email